sensor_id;sensor_type;location;lat;lon;timestamp;P1;durP1;ratioP1;P2;durP2;ratioP2
13267;SDS011;6702;47.068;15.458;2023-07-02T00:02:56;6.27;;;5.13;;
13267;SDS011;6702;47.068;15.458;2023-07-02T00:06:01;9.43;;;5.30;;
13267;SDS011;6702;47.068;15.458;2023-07-02T00:09:06;6.00;;;5.40;;
13267;SDS011;6702;47.068;15.458;2023-07-02T00:12:10;5.03;;;4.43;;
13267;SDS011;6702;47.068;15.458;2023-07-02T00:15:13;5.57;;;4.70;;
13267;SDS011;6702;47.068;15.458;2023-07-02T00:18:16;4.83;;;4.40;;
13267;SDS011;6702;47.068;15.458;2023-07-02T00:21:19;4.77;;;4.37;;
13267;SDS011;6702;47.068;15.458;2023-07-02T00:24:24;6.40;;;4.60;;
13267;SDS011;6702;47.068;15.458;2023-07-02T00:27:27;6.70;;;4.60;;
13267;SDS011;6702;47.068;15.458;2023-07-02T00:30:30;5.67;;;5.03;;
13267;SDS011;6702;47.068;15.458;2023-07-02T00:33:34;6.27;;;5.37;;
13267;SDS011;6702;47.068;15.458;2023-07-02T00:36:37;5.90;;;4.73;;
13267;SDS011;6702;47.068;15.458;2023-07-02T00:39:41;5.40;;;4.90;;
13267;SDS011;6702;47.068;15.458;2023-07-02T00:42:44;6.43;;;5.83;;
13267;SDS011;6702;47.068;15.458;2023-07-02T00:45:48;6.30;;;5.57;;
13267;SDS011;6702;47.068;15.458;2023-07-02T00:48:53;5.43;;;5.03;;
13267;SDS011;6702;47.068;15.458;2023-07-02T00:51:57;6.10;;;5.37;;
13267;SDS011;6702;47.068;15.458;2023-07-02T00:55:02;4.33;;;3.93;;
13267;SDS011;6702;47.068;15.458;2023-07-02T00:58:06;5.60;;;5.10;;
13267;SDS011;6702;47.068;15.458;2023-07-02T01:01:09;6.20;;;4.87;;
13267;SDS011;6702;47.068;15.458;2023-07-02T01:04:12;6.47;;;5.77;;
13267;SDS011;6702;47.068;15.458;2023-07-02T01:07:16;5.37;;;4.80;;
13267;SDS011;6702;47.068;15.458;2023-07-02T01:10:20;6.37;;;5.33;;
13267;SDS011;6702;47.068;15.458;2023-07-02T01:13:23;5.03;;;4.53;;
13267;SDS011;6702;47.068;15.458;2023-07-02T01:16:29;5.50;;;5.07;;
13267;SDS011;6702;47.068;15.458;2023-07-02T01:19:44;7.10;;;5.60;;
13267;SDS011;6702;47.068;15.458;2023-07-02T01:22:52;8.80;;;5.43;;
13267;SDS011;6702;47.068;15.458;2023-07-02T01:25:55;6.60;;;5.67;;
13267;SDS011;6702;47.068;15.458;2023-07-02T01:29:00;6.20;;;5.13;;
13267;SDS011;6702;47.068;15.458;2023-07-02T01:32:17;6.50;;;5.30;;
13267;SDS011;6702;47.068;15.458;2023-07-02T01:35:22;5.80;;;4.80;;
13267;SDS011;6702;47.068;15.458;2023-07-02T01:38:26;5.43;;;4.93;;
13267;SDS011;6702;47.068;15.458;2023-07-02T01:41:31;5.87;;;5.27;;
13267;SDS011;6702;47.068;15.458;2023-07-02T01:44:36;5.90;;;5.30;;
13267;SDS011;6702;47.068;15.458;2023-07-02T01:47:40;6.30;;;5.00;;
13267;SDS011;6702;47.068;15.458;2023-07-02T01:50:44;7.03;;;5.20;;
13267;SDS011;6702;47.068;15.458;2023-07-02T01:53:48;5.57;;;5.07;;
13267;SDS011;6702;47.068;15.458;2023-07-02T01:56:51;6.00;;;5.40;;
13267;SDS011;6702;47.068;15.458;2023-07-02T01:59:54;5.80;;;5.10;;
13267;SDS011;6702;47.068;15.458;2023-07-02T02:02:57;6.60;;;5.10;;
13267;SDS011;6702;47.068;15.458;2023-07-02T02:06:02;6.93;;;6.30;;
13267;SDS011;6702;47.068;15.458;2023-07-02T02:09:05;5.70;;;5.20;;
13267;SDS011;6702;47.068;15.458;2023-07-02T02:12:10;4.93;;;4.43;;
13267;SDS011;6702;47.068;15.458;2023-07-02T02:15:15;5.97;;;5.47;;
13267;SDS011;6702;47.068;15.458;2023-07-02T02:18:18;5.63;;;5.13;;
13267;SDS011;6702;47.068;15.458;2023-07-02T02:21:23;6.50;;;5.47;;
13267;SDS011;6702;47.068;15.458;2023-07-02T02:24:26;7.67;;;6.40;;
13267;SDS011;6702;47.068;15.458;2023-07-02T02:27:29;6.20;;;5.60;;
13267;SDS011;6702;47.068;15.458;2023-07-02T02:30:33;5.93;;;5.33;;
13267;SDS011;6702;47.068;15.458;2023-07-02T02:33:36;8.73;;;5.77;;
13267;SDS011;6702;47.068;15.458;2023-07-02T02:36:41;7.03;;;5.77;;
13267;SDS011;6702;47.068;15.458;2023-07-02T02:39:45;6.43;;;5.83;;
13267;SDS011;6702;47.068;15.458;2023-07-02T02:42:48;11.20;;;5.27;;
13267;SDS011;6702;47.068;15.458;2023-07-02T02:45:51;6.57;;;5.97;;
13267;SDS011;6702;47.068;15.458;2023-07-02T02:48:54;6.27;;;5.77;;
13267;SDS011;6702;47.068;15.458;2023-07-02T02:51:59;5.67;;;5.13;;
13267;SDS011;6702;47.068;15.458;2023-07-02T02:55:02;6.37;;;5.77;;
13267;SDS011;6702;47.068;15.458;2023-07-02T02:58:05;9.03;;;6.20;;
13267;SDS011;6702;47.068;15.458;2023-07-02T03:01:08;7.90;;;6.40;;
13267;SDS011;6702;47.068;15.458;2023-07-02T03:04:12;7.60;;;6.83;;
13267;SDS011;6702;47.068;15.458;2023-07-02T03:07:17;6.27;;;5.53;;
13267;SDS011;6702;47.068;15.458;2023-07-02T03:10:20;5.87;;;5.37;;
13267;SDS011;6702;47.068;15.458;2023-07-02T03:13:23;6.90;;;6.07;;
13267;SDS011;6702;47.068;15.458;2023-07-02T03:16:27;7.30;;;6.67;;
13267;SDS011;6702;47.068;15.458;2023-07-02T03:19:30;7.03;;;6.50;;
13267;SDS011;6702;47.068;15.458;2023-07-02T03:22:34;6.50;;;5.90;;
13267;SDS011;6702;47.068;15.458;2023-07-02T03:25:38;6.80;;;6.20;;
13267;SDS011;6702;47.068;15.458;2023-07-02T03:28:41;7.03;;;6.43;;
13267;SDS011;6702;47.068;15.458;2023-07-02T03:31:44;6.10;;;5.60;;
13267;SDS011;6702;47.068;15.458;2023-07-02T03:34:47;6.67;;;6.07;;
13267;SDS011;6702;47.068;15.458;2023-07-02T03:37:52;7.90;;;7.20;;
13267;SDS011;6702;47.068;15.458;2023-07-02T03:40:55;6.77;;;6.20;;
13267;SDS011;6702;47.068;15.458;2023-07-02T03:43:58;7.57;;;5.77;;
13267;SDS011;6702;47.068;15.458;2023-07-02T03:47:01;6.37;;;5.77;;
13267;SDS011;6702;47.068;15.458;2023-07-02T03:50:05;6.70;;;5.90;;
13267;SDS011;6702;47.068;15.458;2023-07-02T03:53:10;7.93;;;6.23;;
13267;SDS011;6702;47.068;15.458;2023-07-02T03:56:13;7.27;;;6.57;;
13267;SDS011;6702;47.068;15.458;2023-07-02T03:59:16;6.17;;;5.67;;
13267;SDS011;6702;47.068;15.458;2023-07-02T04:02:19;6.97;;;6.33;;
13267;SDS011;6702;47.068;15.458;2023-07-02T04:05:22;7.30;;;6.70;;
13267;SDS011;6702;47.068;15.458;2023-07-02T04:08:27;7.40;;;6.80;;
13267;SDS011;6702;47.068;15.458;2023-07-02T04:11:30;6.03;;;5.47;;
13267;SDS011;6702;47.068;15.458;2023-07-02T04:14:33;7.17;;;6.40;;
13267;SDS011;6702;47.068;15.458;2023-07-02T04:17:36;8.53;;;7.13;;
13267;SDS011;6702;47.068;15.458;2023-07-02T04:20:40;8.30;;;7.30;;
13267;SDS011;6702;47.068;15.458;2023-07-02T04:23:44;7.27;;;6.57;;
13267;SDS011;6702;47.068;15.458;2023-07-02T04:26:48;7.30;;;6.30;;
13267;SDS011;6702;47.068;15.458;2023-07-02T04:30:11;7.00;;;6.33;;
13267;SDS011;6702;47.068;15.458;2023-07-02T04:33:16;7.47;;;6.87;;
13267;SDS011;6702;47.068;15.458;2023-07-02T04:36:19;7.60;;;6.90;;
13267;SDS011;6702;47.068;15.458;2023-07-02T04:39:24;7.87;;;7.00;;
13267;SDS011;6702;47.068;15.458;2023-07-02T04:42:27;7.90;;;5.93;;
13267;SDS011;6702;47.068;15.458;2023-07-02T04:45:33;7.27;;;6.57;;
13267;SDS011;6702;47.068;15.458;2023-07-02T04:48:38;6.63;;;6.03;;
13267;SDS011;6702;47.068;15.458;2023-07-02T04:51:41;9.33;;;8.50;;
13267;SDS011;6702;47.068;15.458;2023-07-02T04:54:46;7.00;;;6.30;;
13267;SDS011;6702;47.068;15.458;2023-07-02T04:57:49;7.47;;;6.83;;
13267;SDS011;6702;47.068;15.458;2023-07-02T05:00:52;6.47;;;5.93;;
13267;SDS011;6702;47.068;15.458;2023-07-02T05:03:55;7.93;;;6.87;;
13267;SDS011;6702;47.068;15.458;2023-07-02T05:06:59;7.03;;;6.43;;
13267;SDS011;6702;47.068;15.458;2023-07-02T05:10:04;8.60;;;7.00;;
13267;SDS011;6702;47.068;15.458;2023-07-02T05:13:08;8.50;;;7.80;;
13267;SDS011;6702;47.068;15.458;2023-07-02T05:16:11;8.87;;;7.97;;
13267;SDS011;6702;47.068;15.458;2023-07-02T05:19:14;8.10;;;7.40;;
13267;SDS011;6702;47.068;15.458;2023-07-02T05:22:18;7.67;;;7.00;;
13267;SDS011;6702;47.068;15.458;2023-07-02T05:25:22;8.70;;;7.00;;
13267;SDS011;6702;47.068;15.458;2023-07-02T05:28:25;8.07;;;7.27;;
13267;SDS011;6702;47.068;15.458;2023-07-02T05:31:28;7.47;;;6.80;;
13267;SDS011;6702;47.068;15.458;2023-07-02T05:34:31;8.73;;;7.73;;
13267;SDS011;6702;47.068;15.458;2023-07-02T05:37:35;8.00;;;7.30;;
13267;SDS011;6702;47.068;15.458;2023-07-02T05:40:39;7.63;;;6.93;;
13267;SDS011;6702;47.068;15.458;2023-07-02T05:43:42;7.40;;;6.77;;
13267;SDS011;6702;47.068;15.458;2023-07-02T05:46:45;9.00;;;8.10;;
13267;SDS011;6702;47.068;15.458;2023-07-02T05:49:49;8.00;;;7.30;;
13267;SDS011;6702;47.068;15.458;2023-07-02T05:52:52;7.13;;;6.53;;
13267;SDS011;6702;47.068;15.458;2023-07-02T05:55:56;7.37;;;6.77;;
13267;SDS011;6702;47.068;15.458;2023-07-02T05:59:00;8.17;;;7.47;;
13267;SDS011;6702;47.068;15.458;2023-07-02T06:02:03;11.00;;;8.90;;
13267;SDS011;6702;47.068;15.458;2023-07-02T06:05:06;7.87;;;7.17;;
13267;SDS011;6702;47.068;15.458;2023-07-02T06:08:10;8.10;;;7.33;;
13267;SDS011;6702;47.068;15.458;2023-07-02T06:11:15;8.60;;;7.67;;
13267;SDS011;6702;47.068;15.458;2023-07-02T06:14:18;8.63;;;7.93;;
13267;SDS011;6702;47.068;15.458;2023-07-02T06:17:21;8.23;;;7.50;;
13267;SDS011;6702;47.068;15.458;2023-07-02T06:20:26;8.60;;;7.87;;
13267;SDS011;6702;47.068;15.458;2023-07-02T06:23:30;8.57;;;7.67;;
13267;SDS011;6702;47.068;15.458;2023-07-02T06:26:43;11.77;;;7.90;;
13267;SDS011;6702;47.068;15.458;2023-07-02T06:29:46;8.23;;;7.53;;
13267;SDS011;6702;47.068;15.458;2023-07-02T06:32:49;8.70;;;7.87;;
13267;SDS011;6702;47.068;15.458;2023-07-02T06:35:52;8.10;;;7.37;;
13267;SDS011;6702;47.068;15.458;2023-07-02T06:38:55;9.13;;;8.40;;
13267;SDS011;6702;47.068;15.458;2023-07-02T06:42:00;8.30;;;7.60;;
13267;SDS011;6702;47.068;15.458;2023-07-02T06:45:04;8.80;;;8.20;;
13267;SDS011;6702;47.068;15.458;2023-07-02T06:48:08;7.87;;;7.20;;
13267;SDS011;6702;47.068;15.458;2023-07-02T06:51:11;10.33;;;8.13;;
13267;SDS011;6702;47.068;15.458;2023-07-02T06:54:16;8.47;;;7.73;;
13267;SDS011;6702;47.068;15.458;2023-07-02T06:57:21;8.70;;;8.00;;
13267;SDS011;6702;47.068;15.458;2023-07-02T07:00:24;9.23;;;8.40;;
13267;SDS011;6702;47.068;15.458;2023-07-02T07:03:28;6.97;;;6.37;;
13267;SDS011;6702;47.068;15.458;2023-07-02T07:06:31;7.77;;;7.13;;
13267;SDS011;6702;47.068;15.458;2023-07-02T07:09:35;7.43;;;6.73;;
13267;SDS011;6702;47.068;15.458;2023-07-02T07:12:39;7.80;;;7.20;;
13267;SDS011;6702;47.068;15.458;2023-07-02T07:15:42;7.67;;;7.07;;
13267;SDS011;6702;47.068;15.458;2023-07-02T07:18:46;7.63;;;6.25;;
13267;SDS011;6702;47.068;15.458;2023-07-02T07:21:49;6.60;;;6.10;;
13267;SDS011;6702;47.068;15.458;2023-07-02T07:24:52;6.90;;;6.38;;
13267;SDS011;6702;47.068;15.458;2023-07-02T07:27:57;6.88;;;6.20;;
13267;SDS011;6702;47.068;15.458;2023-07-02T07:31:01;7.15;;;6.45;;
13267;SDS011;6702;47.068;15.458;2023-07-02T07:34:05;7.20;;;4.80;;
13267;SDS011;6702;47.068;15.458;2023-07-02T07:37:08;8.20;;;6.15;;
13267;SDS011;6702;47.068;15.458;2023-07-02T07:40:11;5.03;;;4.55;;
13267;SDS011;6702;47.068;15.458;2023-07-02T07:43:16;4.88;;;4.47;;
13267;SDS011;6702;47.068;15.458;2023-07-02T07:46:19;5.13;;;4.72;;
13267;SDS011;6702;47.068;15.458;2023-07-02T07:49:25;4.20;;;3.90;;
13267;SDS011;6702;47.068;15.458;2023-07-02T07:52:28;4.93;;;4.53;;
13267;SDS011;6702;47.068;15.458;2023-07-02T07:55:31;4.88;;;4.40;;
13267;SDS011;6702;47.068;15.458;2023-07-02T07:58:36;3.35;;;3.05;;
13267;SDS011;6702;47.068;15.458;2023-07-02T08:01:39;4.40;;;4.10;;
13267;SDS011;6702;47.068;15.458;2023-07-02T08:04:43;4.53;;;4.22;;
13267;SDS011;6702;47.068;15.458;2023-07-02T08:07:46;3.73;;;3.43;;
13267;SDS011;6702;47.068;15.458;2023-07-02T08:10:49;3.60;;;3.30;;
13267;SDS011;6702;47.068;15.458;2023-07-02T08:13:54;3.57;;;2.90;;
13267;SDS011;6702;47.068;15.458;2023-07-02T08:16:57;2.87;;;2.50;;
13267;SDS011;6702;47.068;15.458;2023-07-02T08:20:00;2.80;;;2.50;;
13267;SDS011;6702;47.068;15.458;2023-07-02T08:23:05;4.07;;;2.53;;
13267;SDS011;6702;47.068;15.458;2023-07-02T08:26:08;4.70;;;3.40;;
13267;SDS011;6702;47.068;15.458;2023-07-02T08:29:14;3.83;;;3.53;;
13267;SDS011;6702;47.068;15.458;2023-07-02T08:32:18;3.40;;;2.57;;
13267;SDS011;6702;47.068;15.458;2023-07-02T08:35:21;3.73;;;2.73;;
13267;SDS011;6702;47.068;15.458;2023-07-02T08:38:25;3.20;;;2.30;;
13267;SDS011;6702;47.068;15.458;2023-07-02T08:41:28;3.97;;;3.67;;
13267;SDS011;6702;47.068;15.458;2023-07-02T08:44:34;2.93;;;2.73;;
13267;SDS011;6702;47.068;15.458;2023-07-02T08:47:37;2.90;;;2.70;;
13267;SDS011;6702;47.068;15.458;2023-07-02T08:50:42;2.80;;;2.60;;
13267;SDS011;6702;47.068;15.458;2023-07-02T08:53:45;3.07;;;2.77;;
13267;SDS011;6702;47.068;15.458;2023-07-02T08:56:48;2.77;;;2.57;;
13267;SDS011;6702;47.068;15.458;2023-07-02T08:59:53;3.30;;;3.00;;
13267;SDS011;6702;47.068;15.458;2023-07-02T09:02:56;4.27;;;2.13;;
13267;SDS011;6702;47.068;15.458;2023-07-02T09:05:59;3.50;;;2.50;;
13267;SDS011;6702;47.068;15.458;2023-07-02T09:09:03;2.47;;;2.27;;
13267;SDS011;6702;47.068;15.458;2023-07-02T09:12:08;2.50;;;2.30;;
13267;SDS011;6702;47.068;15.458;2023-07-02T09:15:13;3.27;;;2.97;;
13267;SDS011;6702;47.068;15.458;2023-07-02T09:18:17;2.30;;;2.10;;
13267;SDS011;6702;47.068;15.458;2023-07-02T09:21:27;3.03;;;2.27;;
13267;SDS011;6702;47.068;15.458;2023-07-02T09:24:50;2.90;;;2.30;;
13267;SDS011;6702;47.068;15.458;2023-07-02T09:27:54;2.73;;;2.53;;
13267;SDS011;6702;47.068;15.458;2023-07-02T09:30:59;3.13;;;2.47;;
13267;SDS011;6702;47.068;15.458;2023-07-02T09:34:02;2.67;;;1.90;;
13267;SDS011;6702;47.068;15.458;2023-07-02T09:37:05;1.80;;;1.65;;
13267;SDS011;6702;47.068;15.458;2023-07-02T09:40:09;2.42;;;2.22;;
13267;SDS011;6702;47.068;15.458;2023-07-02T09:43:16;4.70;;;2.22;;
13267;SDS011;6702;47.068;15.458;2023-07-02T09:46:22;1.70;;;1.60;;
13267;SDS011;6702;47.068;15.458;2023-07-02T09:49:29;2.30;;;2.10;;
13267;SDS011;6702;47.068;15.458;2023-07-02T09:52:35;1.95;;;1.85;;
13267;SDS011;6702;47.068;15.458;2023-07-02T09:55:38;3.63;;;2.00;;
13267;SDS011;6702;47.068;15.458;2023-07-02T09:58:43;2.30;;;2.10;;
13267;SDS011;6702;47.068;15.458;2023-07-02T10:01:48;1.83;;;1.73;;
13267;SDS011;6702;47.068;15.458;2023-07-02T10:04:52;1.60;;;1.50;;
13267;SDS011;6702;47.068;15.458;2023-07-02T10:07:56;1.73;;;1.63;;
13267;SDS011;6702;47.068;15.458;2023-07-02T10:11:14;2.35;;;2.05;;
13267;SDS011;6702;47.068;15.458;2023-07-02T10:14:17;1.70;;;1.60;;
13267;SDS011;6702;47.068;15.458;2023-07-02T10:17:25;2.15;;;1.77;;
13267;SDS011;6702;47.068;15.458;2023-07-02T10:20:31;2.83;;;2.55;;
13267;SDS011;6702;47.068;15.458;2023-07-02T10:23:37;1.70;;;1.60;;
13267;SDS011;6702;47.068;15.458;2023-07-02T10:26:51;4.28;;;3.80;;
13267;SDS011;6702;47.068;15.458;2023-07-02T10:29:55;8.55;;;7.47;;
13267;SDS011;6702;47.068;15.458;2023-07-02T10:33:09;2.33;;;2.08;;
13267;SDS011;6702;47.068;15.458;2023-07-02T10:36:21;2.15;;;1.40;;
13267;SDS011;6702;47.068;15.458;2023-07-02T10:39:29;2.55;;;1.88;;
13267;SDS011;6702;47.068;15.458;2023-07-02T10:42:32;2.03;;;1.83;;
13267;SDS011;6702;47.068;15.458;2023-07-02T10:45:36;1.65;;;1.55;;
13267;SDS011;6702;47.068;15.458;2023-07-02T10:48:51;1.85;;;1.58;;
13267;SDS011;6702;47.068;15.458;2023-07-02T10:51:58;1.30;;;1.20;;
13267;SDS011;6702;47.068;15.458;2023-07-02T10:55:02;1.50;;;1.40;;
13267;SDS011;6702;47.068;15.458;2023-07-02T10:58:14;2.75;;;2.30;;
13267;SDS011;6702;47.068;15.458;2023-07-02T11:01:21;3.05;;;2.75;;
13267;SDS011;6702;47.068;15.458;2023-07-02T11:04:28;9.88;;;4.97;;
13267;SDS011;6702;47.068;15.458;2023-07-02T11:07:32;4.07;;;3.63;;
13267;SDS011;6702;47.068;15.458;2023-07-02T11:10:35;2.95;;;2.72;;
13267;SDS011;6702;47.068;15.458;2023-07-02T11:13:45;4.55;;;3.53;;
13267;SDS011;6702;47.068;15.458;2023-07-02T11:16:53;2.95;;;2.75;;
13267;SDS011;6702;47.068;15.458;2023-07-02T11:19:58;3.17;;;2.97;;
13267;SDS011;6702;47.068;15.458;2023-07-02T11:23:01;3.70;;;3.40;;
13267;SDS011;6702;47.068;15.458;2023-07-02T11:26:08;2.88;;;2.60;;
13267;SDS011;6702;47.068;15.458;2023-07-02T11:29:11;4.25;;;2.65;;
13267;SDS011;6702;47.068;15.458;2023-07-02T11:32:17;3.20;;;2.80;;
13267;SDS011;6702;47.068;15.458;2023-07-02T11:35:33;5.22;;;3.35;;
13267;SDS011;6702;47.068;15.458;2023-07-02T11:38:37;4.07;;;3.67;;
13267;SDS011;6702;47.068;15.458;2023-07-02T11:41:40;5.38;;;4.88;;
13267;SDS011;6702;47.068;15.458;2023-07-02T11:44:45;3.50;;;3.20;;
13267;SDS011;6702;47.068;15.458;2023-07-02T11:47:52;5.60;;;3.75;;
13267;SDS011;6702;47.068;15.458;2023-07-02T11:50:59;3.38;;;3.08;;
13267;SDS011;6702;47.068;15.458;2023-07-02T11:54:03;3.78;;;3.47;;
13267;SDS011;6702;47.068;15.458;2023-07-02T11:57:07;4.03;;;3.72;;
13267;SDS011;6702;47.068;15.458;2023-07-02T12:00:10;3.20;;;2.83;;
13267;SDS011;6702;47.068;15.458;2023-07-02T12:03:16;2.90;;;2.70;;
13267;SDS011;6702;47.068;15.458;2023-07-02T12:06:21;3.10;;;2.90;;
13267;SDS011;6702;47.068;15.458;2023-07-02T12:09:27;3.78;;;3.47;;
13267;SDS011;6702;47.068;15.458;2023-07-02T12:12:30;3.30;;;3.03;;
13267;SDS011;6702;47.068;15.458;2023-07-02T12:15:36;3.28;;;2.80;;
13267;SDS011;6702;47.068;15.458;2023-07-02T12:18:39;3.30;;;3.10;;
13267;SDS011;6702;47.068;15.458;2023-07-02T12:21:46;4.53;;;3.20;;
13267;SDS011;6702;47.068;15.458;2023-07-02T12:24:50;3.78;;;3.40;;
13267;SDS011;6702;47.068;15.458;2023-07-02T12:27:55;4.00;;;2.72;;
13267;SDS011;6702;47.068;15.458;2023-07-02T12:31:03;3.75;;;2.83;;
13267;SDS011;6702;47.068;15.458;2023-07-02T12:34:08;3.40;;;3.10;;
13267;SDS011;6702;47.068;15.458;2023-07-02T12:37:13;4.10;;;3.33;;
13267;SDS011;6702;47.068;15.458;2023-07-02T12:40:19;3.40;;;2.20;;
13267;SDS011;6702;47.068;15.458;2023-07-02T12:43:26;2.70;;;2.50;;
13267;SDS011;6702;47.068;15.458;2023-07-02T12:46:29;2.23;;;1.90;;
13267;SDS011;6702;47.068;15.458;2023-07-02T12:49:32;2.47;;;2.17;;
13267;SDS011;6702;47.068;15.458;2023-07-02T12:52:38;2.57;;;2.10;;
13267;SDS011;6702;47.068;15.458;2023-07-02T12:55:43;2.17;;;1.97;;
13267;SDS011;6702;47.068;15.458;2023-07-02T12:58:52;3.47;;;1.27;;
13267;SDS011;6702;47.068;15.458;2023-07-02T13:01:56;2.83;;;1.60;;
13267;SDS011;6702;47.068;15.458;2023-07-02T13:05:00;1.77;;;1.67;;
13267;SDS011;6702;47.068;15.458;2023-07-02T13:08:07;3.27;;;1.50;;
13267;SDS011;6702;47.068;15.458;2023-07-02T13:11:13;5.70;;;2.40;;
13267;SDS011;6702;47.068;15.458;2023-07-02T13:14:25;2.80;;;1.60;;
13267;SDS011;6702;47.068;15.458;2023-07-02T13:17:29;2.70;;;2.07;;
13267;SDS011;6702;47.068;15.458;2023-07-02T13:20:35;7.27;;;2.50;;
13267;SDS011;6702;47.068;15.458;2023-07-02T13:23:44;1.90;;;1.80;;
13267;SDS011;6702;47.068;15.458;2023-07-02T13:26:47;2.37;;;1.77;;
13267;SDS011;6702;47.068;15.458;2023-07-02T13:29:51;1.97;;;1.80;;
13267;SDS011;6702;47.068;15.458;2023-07-02T13:32:55;2.53;;;2.33;;
13267;SDS011;6702;47.068;15.458;2023-07-02T13:36:00;2.80;;;2.47;;
13267;SDS011;6702;47.068;15.458;2023-07-02T13:39:07;2.93;;;2.63;;
13267;SDS011;6702;47.068;15.458;2023-07-02T13:42:13;2.97;;;2.77;;
13267;SDS011;6702;47.068;15.458;2023-07-02T13:45:17;2.57;;;2.37;;
13267;SDS011;6702;47.068;15.458;2023-07-02T13:48:21;2.57;;;2.37;;
13267;SDS011;6702;47.068;15.458;2023-07-02T13:51:29;3.27;;;2.40;;
13267;SDS011;6702;47.068;15.458;2023-07-02T13:54:44;3.40;;;3.10;;
13267;SDS011;6702;47.068;15.458;2023-07-02T13:57:53;5.17;;;4.07;;
13267;SDS011;6702;47.068;15.458;2023-07-02T14:00:59;3.70;;;3.40;;
13267;SDS011;6702;47.068;15.458;2023-07-02T14:04:03;3.77;;;3.47;;
13267;SDS011;6702;47.068;15.458;2023-07-02T14:07:08;5.23;;;4.73;;
13267;SDS011;6702;47.068;15.458;2023-07-02T14:10:12;3.70;;;3.40;;
13267;SDS011;6702;47.068;15.458;2023-07-02T14:13:17;3.63;;;3.33;;
13267;SDS011;6702;47.068;15.458;2023-07-02T14:16:22;3.80;;;3.33;;
13267;SDS011;6702;47.068;15.458;2023-07-02T14:19:26;3.70;;;3.40;;
13267;SDS011;6702;47.068;15.458;2023-07-02T14:22:33;4.80;;;4.40;;
13267;SDS011;6702;47.068;15.458;2023-07-02T14:25:37;4.13;;;3.73;;
13267;SDS011;6702;47.068;15.458;2023-07-02T14:28:43;4.30;;;3.95;;
13267;SDS011;6702;47.068;15.458;2023-07-02T14:31:49;4.20;;;3.80;;
13267;SDS011;6702;47.068;15.458;2023-07-02T14:35:03;4.10;;;3.80;;
13267;SDS011;6702;47.068;15.458;2023-07-02T14:38:07;4.05;;;3.70;;
13267;SDS011;6702;47.068;15.458;2023-07-02T14:41:12;4.72;;;4.22;;
13267;SDS011;6702;47.068;15.458;2023-07-02T14:44:15;4.78;;;4.38;;
13267;SDS011;6702;47.068;15.458;2023-07-02T14:47:20;4.82;;;4.43;;
13267;SDS011;6702;47.068;15.458;2023-07-02T14:50:24;3.60;;;3.30;;
13267;SDS011;6702;47.068;15.458;2023-07-02T14:53:27;4.90;;;4.50;;
13267;SDS011;6702;47.068;15.458;2023-07-02T14:56:32;4.33;;;4.00;;
13267;SDS011;6702;47.068;15.458;2023-07-02T14:59:39;5.07;;;4.67;;
13267;SDS011;6702;47.068;15.458;2023-07-02T15:02:44;4.50;;;4.10;;
13267;SDS011;6702;47.068;15.458;2023-07-02T15:05:47;4.90;;;4.50;;
13267;SDS011;6702;47.068;15.458;2023-07-02T15:08:56;5.20;;;4.70;;
13267;SDS011;6702;47.068;15.458;2023-07-02T15:11:59;5.47;;;4.97;;
13267;SDS011;6702;47.068;15.458;2023-07-02T15:15:03;4.30;;;3.90;;
13267;SDS011;6702;47.068;15.458;2023-07-02T15:18:07;4.63;;;4.23;;
13267;SDS011;6702;47.068;15.458;2023-07-02T15:21:12;5.27;;;4.30;;
13267;SDS011;6702;47.068;15.458;2023-07-02T15:24:17;4.63;;;4.23;;
13267;SDS011;6702;47.068;15.458;2023-07-02T15:27:29;4.93;;;4.53;;
13267;SDS011;6702;47.068;15.458;2023-07-02T15:30:32;4.40;;;4.07;;
13267;SDS011;6702;47.068;15.458;2023-07-02T15:33:41;5.10;;;4.60;;
13267;SDS011;6702;47.068;15.458;2023-07-02T15:36:52;5.53;;;5.10;;
13267;SDS011;6702;47.068;15.458;2023-07-02T15:39:57;7.03;;;4.93;;
13267;SDS011;6702;47.068;15.458;2023-07-02T15:43:00;6.57;;;5.00;;
13267;SDS011;6702;47.068;15.458;2023-07-02T15:46:07;4.90;;;4.50;;
13267;SDS011;6702;47.068;15.458;2023-07-02T15:49:12;5.07;;;4.57;;
13267;SDS011;6702;47.068;15.458;2023-07-02T15:52:16;5.60;;;5.07;;
13267;SDS011;6702;47.068;15.458;2023-07-02T15:55:20;4.67;;;4.27;;
13267;SDS011;6702;47.068;15.458;2023-07-02T15:58:28;5.03;;;4.63;;
13267;SDS011;6702;47.068;15.458;2023-07-02T16:01:37;6.87;;;4.47;;
13267;SDS011;6702;47.068;15.458;2023-07-02T16:04:44;5.27;;;4.57;;
13267;SDS011;6702;47.068;15.458;2023-07-02T16:07:48;4.40;;;3.90;;
13267;SDS011;6702;47.068;15.458;2023-07-02T16:10:51;6.33;;;5.83;;
13267;SDS011;6702;47.068;15.458;2023-07-02T16:13:55;5.70;;;5.20;;
13267;SDS011;6702;47.068;15.458;2023-07-02T16:16:58;4.90;;;4.13;;
13267;SDS011;6702;47.068;15.458;2023-07-02T16:20:04;5.60;;;5.10;;
13267;SDS011;6702;47.068;15.458;2023-07-02T16:23:08;4.57;;;4.10;;
13267;SDS011;6702;47.068;15.458;2023-07-02T16:26:11;5.90;;;5.40;;
13267;SDS011;6702;47.068;15.458;2023-07-02T16:29:15;5.30;;;4.90;;
13267;SDS011;6702;47.068;15.458;2023-07-02T16:32:18;5.30;;;4.90;;
13267;SDS011;6702;47.068;15.458;2023-07-02T16:35:27;4.00;;;3.70;;
13267;SDS011;6702;47.068;15.458;2023-07-02T16:38:32;4.43;;;4.03;;
13267;SDS011;6702;47.068;15.458;2023-07-02T16:41:37;4.40;;;4.10;;
13267;SDS011;6702;47.068;15.458;2023-07-02T16:44:57;4.87;;;4.47;;
13267;SDS011;6702;47.068;15.458;2023-07-02T16:48:07;4.67;;;4.27;;
13267;SDS011;6702;47.068;15.458;2023-07-02T16:51:13;4.60;;;4.20;;
13267;SDS011;6702;47.068;15.458;2023-07-02T16:54:17;5.20;;;4.80;;
13267;SDS011;6702;47.068;15.458;2023-07-02T16:57:22;4.80;;;4.40;;
13267;SDS011;6702;47.068;15.458;2023-07-02T17:00:31;4.90;;;4.50;;
13267;SDS011;6702;47.068;15.458;2023-07-02T17:03:34;4.77;;;4.37;;
13267;SDS011;6702;47.068;15.458;2023-07-02T17:06:43;3.47;;;3.20;;
13267;SDS011;6702;47.068;15.458;2023-07-02T17:09:49;3.93;;;3.63;;
13267;SDS011;6702;47.068;15.458;2023-07-02T17:12:53;4.30;;;3.90;;
13267;SDS011;6702;47.068;15.458;2023-07-02T17:15:57;3.93;;;3.63;;
13267;SDS011;6702;47.068;15.458;2023-07-02T17:19:00;5.00;;;4.00;;
13267;SDS011;6702;47.068;15.458;2023-07-02T17:22:06;4.80;;;4.37;;
13267;SDS011;6702;47.068;15.458;2023-07-02T17:25:11;4.27;;;3.87;;
13267;SDS011;6702;47.068;15.458;2023-07-02T17:28:18;4.27;;;3.87;;
13267;SDS011;6702;47.068;15.458;2023-07-02T17:31:24;3.43;;;3.13;;
13267;SDS011;6702;47.068;15.458;2023-07-02T17:34:29;4.23;;;3.80;;
13267;SDS011;6702;47.068;15.458;2023-07-02T17:37:39;4.20;;;3.80;;
13267;SDS011;6702;47.068;15.458;2023-07-02T17:40:44;4.90;;;3.40;;
13267;SDS011;6702;47.068;15.458;2023-07-02T17:43:47;4.20;;;3.80;;
13267;SDS011;6702;47.068;15.458;2023-07-02T17:46:51;4.17;;;3.87;;
13267;SDS011;6702;47.068;15.458;2023-07-02T17:49:55;6.43;;;5.83;;
13267;SDS011;6702;47.068;15.458;2023-07-02T17:53:01;4.53;;;4.13;;
13267;SDS011;6702;47.068;15.458;2023-07-02T17:56:05;4.03;;;3.63;;
13267;SDS011;6702;47.068;15.458;2023-07-02T17:59:09;3.90;;;3.60;;
13267;SDS011;6702;47.068;15.458;2023-07-02T18:02:17;4.80;;;4.40;;
13267;SDS011;6702;47.068;15.458;2023-07-02T18:05:21;5.00;;;3.93;;
13267;SDS011;6702;47.068;15.458;2023-07-02T18:08:27;4.13;;;3.73;;
13267;SDS011;6702;47.068;15.458;2023-07-02T18:11:33;3.70;;;3.40;;
13267;SDS011;6702;47.068;15.458;2023-07-02T18:14:40;5.20;;;4.70;;
13267;SDS011;6702;47.068;15.458;2023-07-02T18:17:44;4.00;;;3.60;;
13267;SDS011;6702;47.068;15.458;2023-07-02T18:20:50;4.40;;;4.00;;
13267;SDS011;6702;47.068;15.458;2023-07-02T18:23:56;4.60;;;4.20;;
13267;SDS011;6702;47.068;15.458;2023-07-02T18:27:02;4.83;;;4.40;;
13267;SDS011;6702;47.068;15.458;2023-07-02T18:30:09;5.50;;;3.90;;
13267;SDS011;6702;47.068;15.458;2023-07-02T18:33:15;4.60;;;3.90;;
13267;SDS011;6702;47.068;15.458;2023-07-02T18:36:22;4.10;;;3.80;;